Time;durP1;ratioP1;P1;durP2;ratioP2;P2;SDS_P1;SDS_P2;PMS_P1;PMS_P2;Temp;Humidity;BMP_temperature;BMP_pressure;BME280_temperature;BME280_humidity;BME280_pressure;Samples;Min_cycle;Max_cycle;Signal;HPM_P1;HPM_P2
2022/09/20 00:01:19;;;;;;;528.07;506.57;;;11.40;99.90;;;;;;5015754;28;20454;-84
2022/09/20 00:03:48;;;;;;;491.47;472.57;;;11.40;99.90;;;;;;5018056;28;20572;-83
2022/09/20 00:06:17;;;;;;;504.67;484.27;;;11.40;99.90;;;;;;5015601;28;20826;-84
2022/09/20 00:08:44;;;;;;;500.70;480.77;;;11.50;99.90;;;;;;5016176;28;20466;-83
2022/09/20 00:11:14;;;;;;;469.90;451.47;;;11.50;99.90;;;;;;5015592;28;20460;-83
2022/09/20 00:13:42;;;;;;;443.23;426.50;;;11.50;99.90;;;;;;5016410;28;21019;-83
2022/09/20 00:16:10;;;;;;;371.83;358.23;;;11.60;99.90;;;;;;5015614;28;20457;-83
2022/09/20 00:18:40;;;;;;;369.27;356.00;;;11.60;99.90;;;;;;5016155;28;20449;-82
2022/09/20 00:21:07;;;;;;;386.87;373.50;;;11.60;99.90;;;;;;5016501;28;20460;-84
2022/09/20 00:23:35;;;;;;;371.33;358.73;;;11.70;99.90;;;;;;5015449;28;20488;-84
2022/09/20 00:26:03;;;;;;;365.33;352.53;;;11.70;99.90;;;;;;5015317;28;20913;-83
2022/09/20 00:28:32;;;;;;;374.87;361.90;;;11.60;99.90;;;;;;5015349;28;21031;-83
2022/09/20 00:30:59;;;;;;;381.57;367.87;;;11.60;99.90;;;;;;5016354;28;20844;-83
2022/09/20 00:35:06;;;;;;;396.83;383.23;;;11.60;99.90;;;;;;5015358;28;20484;-83
2022/09/20 00:36:14;;;;;;;421.30;406.10;;;11.60;99.90;;;;;;5015768;28;20536;-84
2022/09/20 00:38:43;;;;;;;491.53;472.83;;;11.60;99.90;;;;;;5016906;28;20462;-84
2022/09/20 00:41:11;;;;;;;507.83;487.93;;;11.60;99.90;;;;;;5015054;28;20980;-83
2022/09/20 00:43:40;;;;;;;520.70;499.50;;;11.60;99.90;;;;;;5015623;28;20994;-84
2022/09/20 00:46:18;;;;;;;508.00;488.43;;;11.60;99.90;;;;;;5017934;28;20457;-84
2022/09/20 00:48:45;;;;;;;534.77;513.17;;;11.60;99.90;;;;;;5016229;28;20481;-83
2022/09/20 00:51:17;;;;;;;528.90;507.17;;;11.60;99.90;;;;;;5015405;28;20457;-83
2022/09/20 00:53:48;;;;;;;469.10;449.43;;;11.50;99.90;;;;;;5014733;28;20481;-83
2022/09/20 00:56:20;;;;;;;477.53;459.13;;;11.50;99.90;;;;;;5014014;28;20461;-83
2022/09/20 00:58:51;;;;;;;490.40;471.90;;;11.50;99.90;;;;;;5015402;28;20472;-85
2022/09/20 01:01:18;;;;;;;551.23;528.23;;;11.40;99.90;;;;;;5016540;28;20827;-84
2022/09/20 01:03:45;;;;;;;579.97;556.37;;;11.50;99.90;;;;;;5016706;28;20476;-84
2022/09/20 01:06:15;;;;;;;601.13;575.77;;;11.40;99.90;;;;;;5015738;28;20461;-83
2022/09/20 01:08:49;;;;;;;642.33;612.83;;;11.40;99.90;;;;;;5014560;28;20486;-85
2022/09/20 01:11:16;;;;;;;610.80;583.50;;;11.40;99.90;;;;;;5014008;28;20464;-84
2022/09/20 01:13:43;;;;;;;594.20;569.40;;;11.40;99.90;;;;;;5014703;28;20480;-84
2022/09/20 01:16:12;;;;;;;609.73;583.93;;;11.40;99.90;;;;;;5017604;28;20457;-84
2022/09/20 01:18:41;;;;;;;616.53;589.97;;;11.40;99.90;;;;;;5020625;28;20449;-83
2022/09/20 01:21:09;;;;;;;600.47;573.43;;;11.40;99.90;;;;;;5018421;28;20456;-84
2022/09/20 01:23:49;;;;;;;588.43;563.73;;;11.40;99.90;;;;;;5018904;28;20481;-83
2022/09/20 01:26:43;;;;;;;555.70;532.70;;;11.50;99.90;;;;;;5017818;28;20448;-83
2022/09/20 01:29:23;;;;;;;513.37;492.97;;;11.50;99.90;;;;;;5021216;28;20460;-84
2022/09/20 01:31:54;;;;;;;459.87;442.77;;;11.50;99.90;;;;;;5019600;28;20456;-83
2022/09/20 01:34:27;;;;;;;421.40;405.70;;;11.50;99.90;;;;;;5018145;28;20477;-84
2022/09/20 01:36:58;;;;;;;378.97;364.83;;;11.50;99.90;;;;;;5019224;28;20460;-84
2022/09/20 01:39:33;;;;;;;374.50;360.90;;;11.50;99.90;;;;;;5017329;28;20536;-84
2022/09/20 01:42:06;;;;;;;397.10;383.30;;;11.50;99.90;;;;;;5016777;28;20543;-83
2022/09/20 01:44:39;;;;;;;409.53;394.53;;;11.50;99.90;;;;;;5017476;28;21006;-84
2022/09/20 01:47:15;;;;;;;426.67;411.43;;;11.50;99.90;;;;;;5017484;28;20485;-83
2022/09/20 01:49:51;;;;;;;395.07;380.97;;;11.50;99.90;;;;;;5016426;28;20453;-83
2022/09/20 01:53:09;;;;;;;385.03;371.40;;;11.50;99.90;;;;;;5018157;28;20459;-83
2022/09/20 01:56:07;;;;;;;369.97;356.80;;;11.50;99.90;;;;;;5017313;28;20479;-83
2022/09/20 01:59:02;;;;;;;343.37;331.97;;;11.50;99.90;;;;;;4999122;28;20448;-84
2022/09/20 02:01:51;;;;;;;354.37;341.33;;;11.50;99.90;;;;;;5016236;28;20839;-84
2022/09/20 02:04:53;;;;;;;345.17;332.93;;;11.50;99.90;;;;;;5015745;28;20477;-84
2022/09/20 02:07:53;;;;;;;323.40;312.50;;;11.50;99.90;;;;;;4991653;28;20483;-85
2022/09/20 02:10:56;;;;;;;315.23;304.47;;;11.50;99.90;;;;;;5016393;28;20467;-83
2022/09/20 02:13:30;;;;;;;313.03;302.37;;;11.50;99.90;;;;;;5005530;28;20476;-85
2022/09/20 02:16:15;;;;;;;339.13;327.97;;;11.50;99.90;;;;;;5016088;28;20460;-83
2022/09/20 02:19:07;;;;;;;431.23;415.13;;;11.50;99.90;;;;;;5016769;28;20453;-83
2022/09/20 02:21:38;;;;;;;510.80;490.77;;;11.50;99.90;;;;;;5016158;28;20457;-83
2022/09/20 02:24:18;;;;;;;510.40;489.77;;;11.50;99.90;;;;;;5016970;28;20477;-85
2022/09/20 02:26:58;;;;;;;530.10;508.70;;;11.40;99.90;;;;;;5017830;28;20465;-84
2022/09/20 02:29:35;;;;;;;561.77;538.20;;;11.40;99.90;;;;;;5015777;28;20453;-83
2022/09/20 02:32:23;;;;;;;548.33;525.97;;;11.40;99.90;;;;;;5016149;28;20558;-83
2022/09/20 02:35:16;;;;;;;522.83;502.33;;;11.40;99.90;;;;;;5016602;28;20839;-84
2022/09/20 02:38:00;;;;;;;500.43;481.73;;;11.40;99.90;;;;;;5020343;28;20462;-84
2022/09/20 02:40:43;;;;;;;508.07;488.87;;;11.40;99.90;;;;;;5017622;28;20445;-83
2022/09/20 02:43:19;;;;;;;487.43;469.43;;;11.40;99.90;;;;;;5015794;28;20848;-84
2022/09/20 02:45:55;;;;;;;454.80;438.53;;;11.40;99.90;;;;;;5018077;28;20854;-84
2022/09/20 02:48:29;;;;;;;498.87;477.97;;;11.40;99.90;;;;;;5016525;28;20711;-83
2022/09/20 02:51:05;;;;;;;536.57;513.77;;;11.40;99.90;;;;;;5015899;28;20642;-83
2022/09/20 02:53:40;;;;;;;542.87;519.97;;;11.40;99.90;;;;;;5016060;28;20476;-85
2022/09/20 02:56:17;;;;;;;560.13;535.63;;;11.30;99.90;;;;;;5016083;28;20456;-83
2022/09/20 02:58:52;;;;;;;576.63;551.70;;;11.30;99.90;;;;;;5015316;28;20449;-83
2022/09/20 03:01:32;;;;;;;573.53;549.63;;;11.30;99.90;;;;;;5015180;28;20453;-83
2022/09/20 03:04:10;;;;;;;605.87;578.87;;;11.20;99.90;;;;;;5014774;28;20472;-84
2022/09/20 03:06:45;;;;;;;614.57;587.43;;;11.20;99.90;;;;;;5014781;28;20497;-85
2022/09/20 03:09:23;;;;;;;642.23;612.33;;;11.20;99.90;;;;;;5016095;28;20487;-84
2022/09/20 03:12:02;;;;;;;661.37;630.07;;;11.20;99.90;;;;;;5016829;28;20453;-84
2022/09/20 03:14:35;;;;;;;677.57;645.00;;;11.10;99.90;;;;;;5014281;28;20868;-84
2022/09/20 03:17:13;;;;;;;716.57;678.27;;;11.10;99.90;;;;;;5014603;28;20453;-84
2022/09/20 03:20:01;;;;;;;740.90;700.97;;;11.10;99.90;;;;;;5014354;28;20467;-83
2022/09/20 03:22:41;;;;;;;733.13;693.87;;;11.10;99.90;;;;;;5018067;28;20457;-84
2022/09/20 03:25:33;;;;;;;726.27;687.87;;;11.10;99.90;;;;;;5018925;28;20941;-84
2022/09/20 03:28:12;;;;;;;696.73;661.57;;;11.10;99.90;;;;;;5019247;28;20488;-84
2022/09/20 03:30:52;;;;;;;691.47;656.50;;;11.10;99.90;;;;;;5019572;28;20457;-84
2022/09/20 03:33:35;;;;;;;674.80;641.27;;;11.10;99.90;;;;;;5019533;28;20480;-85
2022/09/20 03:36:19;;;;;;;636.03;604.93;;;11.20;99.90;;;;;;5018995;28;20437;-84
2022/09/20 03:39:03;;;;;;;611.20;582.30;;;11.10;99.90;;;;;;5018543;28;20449;-84
2022/09/20 03:41:41;;;;;;;620.27;589.87;;;11.20;99.90;;;;;;5013307;28;20837;-83
2022/09/20 03:44:26;;;;;;;628.53;596.10;;;11.20;99.90;;;;;;5014364;28;20477;-83
2022/09/20 03:47:03;;;;;;;649.83;618.13;;;11.20;99.90;;;;;;5014689;28;20460;-83
2022/09/20 03:49:56;;;;;;;667.80;632.27;;;11.10;99.90;;;;;;5014140;28;20485;-83
2022/09/20 03:52:41;;;;;;;705.10;667.80;;;11.10;99.90;;;;;;5013692;28;20457;-84
2022/09/20 03:55:50;;;;;;;714.33;676.73;;;11.10;99.90;;;;;;5013757;28;20457;-83
2022/09/20 03:58:27;;;;;;;706.00;669.33;;;11.10;99.90;;;;;;5013802;28;20457;-83
2022/09/20 04:01:13;;;;;;;721.90;684.00;;;11.00;99.90;;;;;;5015964;28;20473;-84
2022/09/20 04:03:53;;;;;;;730.03;690.60;;;11.00;99.90;;;;;;5018151;28;20548;-84
2022/09/20 04:06:44;;;;;;;737.40;697.10;;;11.00;99.90;;;;;;5018388;28;20449;-83
2022/09/20 04:10:00;;;;;;;744.63;703.23;;;11.00;99.90;;;;;;5017831;28;20486;-84
2022/09/20 04:20:42;;;;;;;;;;;;;;;;;;;;;
2022/09/20 04:23:59;;;;;;;740.67;699.27;;;11.10;99.90;;;;;;4840434;29;20481;-84
2022/09/20 04:26:29;;;;;;;753.23;711.10;;;11.10;99.90;;;;;;5004310;28;20457;-85
2022/09/20 04:29:22;;;;;;;748.50;706.10;;;11.10;99.90;;;;;;5016819;28;20484;-84
2022/09/20 04:31:59;;;;;;;752.20;710.30;;;11.10;99.90;;;;;;5018045;28;20464;-84
2022/09/20 04:36:27;;;;;;;749.60;706.03;;;11.10;99.90;;;;;;5016149;28;21005;-83
2022/09/20 04:37:25;;;;;;;768.20;723.17;;;11.10;99.90;;;;;;5014071;28;20536;-84
2022/09/20 04:40:01;;;;;;;764.40;721.63;;;11.10;99.90;;;;;;5018660;28;20457;-84
2022/09/20 04:46:42;;;;;;;742.90;701.70;;;11.10;99.90;;;;;;5015051;28;20453;-84
2022/09/20 04:49:50;;;;;;;733.20;693.83;;;11.10;99.90;;;;;;5015742;28;20504;-84
2022/09/20 04:53:19;;;;;;;739.33;700.23;;;11.10;99.90;;;;;;4961280;28;20452;-83
2022/09/20 04:55:56;;;;;;;767.87;726.37;;;11.10;99.90;;;;;;5015471;28;20534;-83
2022/09/20 05:02:29;;;;;;;790.77;743.70;;;11.10;99.90;;;;;;5012434;28;20453;-84
2022/09/20 05:05:48;;;;;;;793.07;746.50;;;11.20;99.90;;;;;;5017961;28;20750;-84
2022/09/20 05:08:51;;;;;;;810.50;761.00;;;11.20;99.90;;;;;;5018470;28;20476;-84
2022/09/20 05:15:58;;;;;;;;;;;;;;;;;;;;;
2022/09/20 05:19:13;;;;;;;828.33;776.03;;;11.10;99.90;;;;;;4957890;28;20445;-84
2022/09/20 05:22:18;;;;;;;830.03;778.00;;;11.10;99.90;;;;;;4985790;28;20515;-83
2022/09/20 05:28:34;;;;;;;835.73;783.10;;;11.10;99.90;;;;;;5005054;28;20457;-84
2022/09/20 05:31:09;;;;;;;842.60;788.83;;;11.10;99.90;;;;;;5017030;28;20460;-83
2022/09/20 05:33:44;;;;;;;840.47;786.40;;;11.10;99.90;;;;;;5018114;28;20564;-84
2022/09/20 05:36:17;;;;;;;839.03;785.23;;;11.20;99.90;;;;;;5018451;28;20453;-84
2022/09/20 05:38:49;;;;;;;838.07;784.20;;;11.10;99.90;;;;;;5018904;28;20455;-84
2022/09/20 05:41:25;;;;;;;842.00;787.00;;;11.10;99.90;;;;;;5018997;28;20868;-83
2022/09/20 05:44:01;;;;;;;835.40;782.50;;;11.10;99.90;;;;;;5018490;28;20838;-84
2022/09/20 05:46:47;;;;;;;831.10;778.37;;;11.10;99.90;;;;;;5018143;28;20544;-83
2022/09/20 05:52:40;;;;;;;836.87;784.73;;;11.10;99.90;;;;;;4957018;28;20523;-83
2022/09/20 05:55:43;;;;;;;827.77;776.77;;;11.20;99.90;;;;;;5012923;28;20456;-84
2022/09/20 06:01:23;;;;;;;810.77;760.90;;;11.20;99.90;;;;;;5016880;28;20460;-84
2022/09/20 06:03:59;;;;;;;807.27;758.27;;;11.20;99.90;;;;;;5017801;28;20465;-84
2022/09/20 06:07:04;;;;;;;819.63;769.80;;;11.10;99.90;;;;;;5020837;28;20453;-83
2022/09/20 06:10:11;;;;;;;816.57;765.70;;;11.10;99.90;;;;;;5021987;28;20479;-83
2022/09/20 06:12:51;;;;;;;818.90;768.60;;;11.10;99.90;;;;;;5023610;28;20468;-83
2022/09/20 06:16:03;;;;;;;817.70;766.90;;;11.00;99.90;;;;;;5021291;28;20466;-84
2022/09/20 06:18:44;;;;;;;816.80;763.70;;;11.10;99.90;;;;;;5018666;28;20457;-83
2022/09/20 06:21:30;;;;;;;811.30;759.37;;;11.20;99.90;;;;;;5021193;28;20985;-82
2022/09/20 06:24:01;;;;;;;809.63;758.27;;;11.30;99.90;;;;;;5023533;28;20501;-83
2022/09/20 06:26:31;;;;;;;795.27;746.50;;;11.40;99.90;;;;;;5023381;28;20460;-85
2022/09/20 06:29:04;;;;;;;782.63;735.30;;;11.40;99.90;;;;;;5023281;28;21084;-84
2022/09/20 06:31:33;;;;;;;731.87;690.57;;;11.50;99.90;;;;;;5020192;28;20943;-82
2022/09/20 06:34:07;;;;;;;687.60;651.47;;;11.60;99.90;;;;;;5020718;28;20540;-84
2022/09/20 06:42:35;;;;;;;534.13;510.53;;;11.90;99.90;;;;;;4960761;29;20860;-85
2022/09/20 06:45:10;;;;;;;473.53;454.03;;;12.00;99.90;;;;;;4960748;29;20726;-84
2022/09/20 06:47:49;;;;;;;350.07;336.40;;;12.20;99.90;;;;;;4984093;28;20500;-84
2022/09/20 06:50:21;;;;;;;347.40;334.33;;;12.20;99.90;;;;;;5002946;28;20450;-84
2022/09/20 06:53:02;;;;;;;351.50;338.63;;;12.30;99.90;;;;;;5003621;28;20474;-85
2022/09/20 06:55:36;;;;;;;290.13;279.13;;;12.50;99.90;;;;;;5003009;28;20520;-84
2022/09/20 06:58:08;;;;;;;272.63;262.23;;;12.60;99.90;;;;;;5003170;28;20550;-85
2022/09/20 07:00:39;;;;;;;186.73;179.70;;;12.70;99.90;;;;;;5003476;28;20536;-85
2022/09/20 07:03:11;;;;;;;151.40;145.30;;;12.80;99.90;;;;;;5003638;28;20844;-85
2022/09/20 07:05:40;;;;;;;129.97;125.17;;;12.90;99.90;;;;;;5002042;28;20493;-86
2022/09/20 07:08:09;;;;;;;96.90;92.90;;;12.90;99.90;;;;;;5003430;28;20450;-85
2022/09/20 07:10:42;;;;;;;94.23;89.23;;;13.00;99.90;;;;;;5003292;28;21003;-86
2022/09/20 07:13:22;;;;;;;20.53;19.03;;;13.10;99.90;;;;;;5003019;28;20475;-85
2022/09/20 07:15:50;;;;;;;21.37;19.67;;;13.00;99.90;;;;;;5001203;28;20458;-84
2022/09/20 07:18:23;;;;;;;27.00;25.47;;;12.90;99.90;;;;;;5003005;28;20450;-85
2022/09/20 07:21:30;;;;;;;44.40;41.80;;;13.10;99.90;;;;;;5001949;28;20458;-85
2022/09/20 07:24:01;;;;;;;25.87;16.60;;;13.00;99.90;;;;;;4973516;28;20529;-84
2022/09/20 07:26:33;;;;;;;33.60;31.60;;;12.90;99.90;;;;;;5000334;28;20504;-85
2022/09/20 07:29:37;;;;;;;17.43;15.73;;;12.90;99.90;;;;;;5000849;28;20450;-84
2022/09/20 07:32:04;;;;;;;33.50;30.20;;;12.90;99.90;;;;;;4998038;28;20512;-84
2022/09/20 07:37:32;;;;;;;24.90;23.10;;;12.90;99.90;;;;;;4997243;28;20513;-84
2022/09/20 07:47:05;;;;;;;29.90;28.10;;;12.80;99.90;;;;;;4949770;29;20574;-85
2022/09/20 07:52:21;;;;;;;32.50;30.70;;;12.80;99.90;;;;;;5000435;28;20465;-84
2022/09/20 07:54:53;;;;;;;27.97;26.03;;;13.00;99.90;;;;;;5001280;28;20450;-85
2022/09/20 07:57:36;;;;;;;26.37;24.57;;;13.10;99.90;;;;;;5002084;28;20794;-85
2022/09/20 08:00:10;;;;;;;16.87;15.30;;;13.30;99.90;;;;;;5001874;28;20524;-85
2022/09/20 08:02:40;;;;;;;8.03;6.23;;;13.50;99.90;;;;;;5000975;28;20510;-86
2022/09/20 08:05:21;;;;;;;14.63;6.60;;;13.60;99.90;;;;;;5001165;28;20479;-85
2022/09/20 08:07:58;;;;;;;15.00;5.70;;;14.00;99.90;;;;;;5001599;28;20458;-85
2022/09/20 08:10:40;;;;;;;14.13;5.43;;;14.20;99.90;;;;;;5002564;28;20462;-85
2022/09/20 08:16:43;;;;;;;15.53;12.57;;;14.60;99.80;;;;;;5001532;28;20458;-85
2022/09/20 08:19:20;;;;;;;12.83;11.40;;;14.80;97.30;;;;;;5003662;28;20481;-85
2022/09/20 08:21:54;;;;;;;8.93;2.23;;;15.10;97.60;;;;;;5002841;28;20459;-85
2022/09/20 08:24:29;;;;;;;9.43;3.00;;;15.20;95.60;;;;;;5002392;28;20476;-85
2022/09/20 08:29:59;;;;;;;5.90;2.60;;;15.30;97.00;;;;;;5001350;28;20436;-85
2022/09/20 08:32:41;;;;;;;;;;;;;;;;;;;;;
2022/09/20 08:35:14;;;;;;;11.07;3.33;;;15.30;95.60;;;;;;5000753;28;20465;-85
2022/09/20 08:37:49;;;;;;;10.27;2.97;;;14.90;95.60;;;;;;5002712;28;20514;-85
2022/09/20 08:40:54;;;;;;;8.87;2.20;;;14.70;95.30;;;;;;5002500;28;21016;-85
2022/09/20 08:43:24;;;;;;;13.53;2.20;;;14.60;95.40;;;;;;5002644;28;20518;-82
2022/09/20 08:45:52;;;;;;;7.10;2.97;;;15.10;96.80;;;;;;5001851;28;20457;-85
2022/09/20 08:48:28;;;;;;;6.77;2.33;;;15.30;93.20;;;;;;5002341;28;20285;-86
2022/09/20 08:50:55;;;;;;;8.53;2.10;;;15.70;94.10;;;;;;5002485;28;20455;-86
2022/09/20 08:53:27;;;;;;;8.17;2.60;;;15.80;92.00;;;;;;5003303;28;20488;-86
2022/09/20 08:56:05;;;;;;;7.83;2.10;;;16.00;91.60;;;;;;5003761;28;20929;-86
2022/09/20 08:58:37;;;;;;;9.80;2.23;;;16.40;90.20;;;;;;5002667;28;20497;-85
2022/09/20 09:01:42;;;;;;;10.93;4.00;;;16.40;88.60;;;;;;5003058;28;20566;-86
2022/09/20 09:04:22;;;;;;;6.40;1.97;;;16.40;90.20;;;;;;4997036;28;21030;-85
2022/09/20 09:07:07;;;;;;;8.73;1.90;;;16.30;87.20;;;;;;5003023;28;20461;-85
2022/09/20 09:09:40;;;;;;;5.27;1.33;;;16.60;87.50;;;;;;5003474;28;20486;-85
2022/09/20 09:12:24;;;;;;;7.27;1.63;;;15.90;83.90;;;;;;5003582;28;20458;-85
2022/09/20 09:15:16;;;;;;;;;;;;;;;;;;;;;
2022/09/20 09:17:47;;;;;;;6.90;2.57;;;16.60;85.50;;;;;;5001522;28;20453;-85
2022/09/20 09:20:22;;;;;;;4.83;1.40;;;16.80;75.40;;;;;;4999515;28;20483;-85
2022/09/20 09:23:03;;;;;;;7.10;1.00;;;17.10;80.10;;;;;;4999102;28;20528;-85
2022/09/20 09:25:33;;;;;;;9.20;1.67;;;17.10;79.00;;;;;;5000244;28;20454;-87
2022/09/20 09:28:02;;;;;;;6.23;1.23;;;17.20;77.10;;;;;;4998704;28;20548;-85
2022/09/20 09:30:30;;;;;;;11.17;1.77;;;16.80;75.30;;;;;;5001738;28;20453;-85
2022/09/20 09:33:16;;;;;;;6.60;1.40;;;16.50;74.00;;;;;;5001318;28;20483;-85
2022/09/20 09:36:17;;;;;;;8.43;1.20;;;16.60;75.90;;;;;;5000983;28;20451;-85
2022/09/20 09:38:46;;;;;;;6.53;1.50;;;16.30;73.00;;;;;;4998458;28;20456;-85
2022/09/20 09:41:25;;;;;;;9.30;1.40;;;16.20;67.00;;;;;;5004060;28;20507;-86
2022/09/20 09:44:00;;;;;;;6.13;1.40;;;16.10;69.90;;;;;;5005589;28;20517;-85
2022/09/20 09:46:30;;;;;;;8.67;1.63;;;16.40;66.90;;;;;;5003741;28;20461;-85
2022/09/20 09:49:07;;;;;;;8.00;1.00;;;16.60;65.30;;;;;;5004363;28;20843;-86
2022/09/20 09:51:35;;;;;;;6.23;1.90;;;16.60;68.50;;;;;;5005201;28;20460;-86
2022/09/20 09:54:09;;;;;;;7.40;1.60;;;16.20;71.30;;;;;;5005680;28;20474;-85
2022/09/20 09:56:56;;;;;;;4.97;1.20;;;15.80;74.30;;;;;;5004321;28;20465;-85
2022/09/20 09:59:51;;;;;;;6.47;1.47;;;15.90;74.40;;;;;;5004458;28;20547;-85
2022/09/20 10:02:46;;;;;;;7.63;1.47;;;15.90;73.90;;;;;;5004156;28;20977;-85
2022/09/20 10:05:19;;;;;;;8.80;2.47;;;15.80;74.50;;;;;;5003656;28;20496;-85
2022/09/20 10:07:54;;;;;;;6.43;1.47;;;15.60;76.80;;;;;;5004589;28;20698;-86
2022/09/20 10:10:31;;;;;;;6.40;1.40;;;15.60;74.50;;;;;;5024505;28;20457;-85
2022/09/20 10:13:12;;;;;;;6.33;1.63;;;15.60;77.90;;;;;;5025290;28;20568;-85
2022/09/20 10:15:44;;;;;;;7.70;2.07;;;15.40;74.70;;;;;;5023600;28;20497;-85
2022/09/20 10:18:31;;;;;;;6.83;1.70;;;15.30;78.10;;;;;;5023497;28;20549;-85
2022/09/20 10:21:08;;;;;;;5.00;1.47;;;15.10;78.20;;;;;;5024618;28;20482;-84
2022/09/20 10:23:50;;;;;;;5.27;1.60;;;15.10;80.70;;;;;;5023601;28;20490;-85
2022/09/20 10:26:34;;;;;;;5.00;1.43;;;14.80;79.10;;;;;;5025203;28;20538;-85
2022/09/20 10:29:14;;;;;;;7.53;1.60;;;14.70;78.20;;;;;;5025041;28;20461;-85
2022/09/20 10:31:56;;;;;;;5.87;1.37;;;14.70;79.90;;;;;;5024196;28;20496;-84
2022/09/20 10:34:47;;;;;;;6.97;1.53;;;14.60;78.30;;;;;;5022215;28;20488;-85
2022/09/20 10:37:21;;;;;;;5.03;1.27;;;14.50;80.30;;;;;;5023937;28;20466;-87
2022/09/20 10:39:57;;;;;;;10.00;2.00;;;14.40;81.90;;;;;;5024418;28;20469;-85
2022/09/20 10:45:28;;;;;;;7.70;2.00;;;14.20;88.50;;;;;;5021316;28;20461;-84
2022/09/20 10:48:03;;;;;;;13.30;1.70;;;14.00;91.00;;;;;;5019688;28;20453;-82
2022/09/20 10:50:38;;;;;;;4.07;1.13;;;13.20;99.90;;;;;;5019537;28;20449;-85
2022/09/20 10:53:21;;;;;;;7.87;1.50;;;12.10;99.90;;;;;;5016944;28;20572;-85
2022/09/20 10:55:58;;;;;;;5.03;1.53;;;11.40;99.90;;;;;;5017028;28;20464;-87
2022/09/20 10:58:54;;;;;;;4.90;3.37;;;11.30;99.90;;;;;;5016886;28;20515;-86
2022/09/20 11:01:24;;;;;;;15.20;14.27;;;11.50;99.90;;;;;;5020504;28;20503;-85
2022/09/20 11:04:09;;;;;;;20.63;18.93;;;11.50;99.90;;;;;;5024088;28;20476;-86
2022/09/20 11:06:50;;;;;;;7.90;7.23;;;11.50;99.90;;;;;;5024365;28;20933;-85
2022/09/20 11:09:21;;;;;;;37.27;35.70;;;11.80;99.90;;;;;;5022548;28;20453;-86
2022/09/20 11:11:51;;;;;;;57.17;54.97;;;12.00;99.90;;;;;;5023131;28;20444;-85
2022/09/20 11:14:32;;;;;;;10.57;9.77;;;12.20;99.90;;;;;;5022141;28;20477;-84
2022/09/20 11:17:07;;;;;;;12.43;11.63;;;12.30;99.90;;;;;;5023491;28;20567;-84
2022/09/20 11:19:46;;;;;;;3.80;1.60;;;12.50;99.90;;;;;;5023764;28;20461;-85
2022/09/20 11:22:18;;;;;;;4.93;1.50;;;12.50;99.90;;;;;;5022867;28;20460;-85
2022/09/20 11:24:50;;;;;;;4.90;2.20;;;12.70;99.90;;;;;;5022837;28;20458;-85
2022/09/20 11:27:23;;;;;;;4.30;1.10;;;12.80;99.90;;;;;;5023906;28;20475;-86
2022/09/20 11:29:59;;;;;;;4.80;1.80;;;12.90;99.90;;;;;;5023014;28;20453;-86
2022/09/20 11:32:35;;;;;;;6.03;1.67;;;12.90;99.90;;;;;;5022608;28;20437;-85
2022/09/20 11:35:06;;;;;;;3.60;1.50;;;13.20;99.90;;;;;;5021817;28;21166;-85
2022/09/20 11:37:39;;;;;;;3.80;1.20;;;13.30;99.90;;;;;;5023267;28;20840;-85
2022/09/20 11:40:24;;;;;;;3.77;1.00;;;13.70;99.90;;;;;;5021033;28;20453;-84
2022/09/20 11:42:52;;;;;;;4.90;1.50;;;13.70;99.80;;;;;;5022100;28;20465;-84
2022/09/20 11:45:40;;;;;;;4.23;1.37;;;14.00;99.90;;;;;;5020644;28;20464;-84
2022/09/20 11:48:10;;;;;;;5.03;1.30;;;14.00;98.10;;;;;;5021228;28;20594;-85
2022/09/20 11:51:03;;;;;;;3.10;0.90;;;14.50;99.50;;;;;;5020814;28;20489;-84
2022/09/20 11:53:43;;;;;;;3.77;1.03;;;14.80;96.90;;;;;;5018931;28;20894;-83
2022/09/20 11:59:02;;;;;;;5.43;1.77;;;15.20;94.40;;;;;;5007143;28;20458;-85
2022/09/20 12:01:34;;;;;;;3.40;1.00;;;15.50;92.10;;;;;;5018781;28;20463;-84
2022/09/20 12:04:06;;;;;;;5.10;1.20;;;16.00;93.50;;;;;;5018520;28;20470;-83
2022/09/20 12:06:35;;;;;;;6.73;1.30;;;17.10;88.90;;;;;;5018049;28;20836;-84
2022/09/20 12:09:39;;;;;;;7.50;1.10;;;17.40;78.70;;;;;;5018872;28;20460;-84
2022/09/20 12:12:26;;;;;;;7.00;1.00;;;18.00;79.20;;;;;;5019272;28;20481;-85
2022/09/20 12:18:14;;;;;;;5.10;1.37;;;18.30;70.00;;;;;;5018721;28;20452;-84
2022/09/20 12:21:12;;;;;;;4.80;0.97;;;17.70;74.70;;;;;;5019064;28;20449;-86
2022/09/20 12:24:18;;;;;;;7.03;1.30;;;17.60;74.60;;;;;;5017288;28;20504;-83
2022/09/20 12:26:46;;;;;;;7.77;1.57;;;17.00;75.90;;;;;;5006004;28;20531;-82
2022/09/20 12:29:51;;;;;;;10.00;1.33;;;16.50;75.10;;;;;;5018264;28;20463;-84
2022/09/20 12:32:53;;;;;;;6.87;1.60;;;16.20;76.60;;;;;;5016950;28;20509;-84
2022/09/20 12:36:00;;;;;;;5.67;1.30;;;15.70;80.00;;;;;;5017291;28;20457;-84
2022/09/20 12:39:09;;;;;;;11.67;1.67;;;15.70;82.10;;;;;;4997287;28;20453;-84
2022/09/20 12:41:52;;;;;;;6.50;1.40;;;15.30;85.90;;;;;;4996069;28;20542;-82
2022/09/20 12:44:32;;;;;;;7.00;1.97;;;15.20;90.50;;;;;;4998480;28;20472;-83
2022/09/20 12:47:02;;;;;;;12.53;2.53;;;15.10;91.30;;;;;;4997756;28;20450;-84
2022/09/20 12:52:57;;;;;;;10.10;1.53;;;14.70;90.70;;;;;;4997961;28;20454;-83
2022/09/20 12:55:35;;;;;;;7.53;1.40;;;14.70;89.00;;;;;;4996944;28;20446;-84
2022/09/20 12:58:21;;;;;;;4.57;1.20;;;14.70;90.00;;;;;;4997505;28;20455;-84
2022/09/20 13:00:51;;;;;;;5.53;1.10;;;14.90;87.30;;;;;;4998283;28;20513;-84
2022/09/20 13:03:28;;;;;;;6.77;1.20;;;15.00;87.80;;;;;;4999016;28;20471;-85
2022/09/20 13:06:24;;;;;;;9.80;2.07;;;15.30;84.20;;;;;;4999402;28;20462;-84
2022/09/20 13:09:02;;;;;;;5.60;2.30;;;15.50;85.10;;;;;;4999986;28;20543;-84
2022/09/20 13:11:34;;;;;;;6.60;1.60;;;15.80;82.20;;;;;;5000318;28;20478;-83
2022/09/20 13:14:06;;;;;;;4.80;1.30;;;15.80;82.20;;;;;;5000976;28;20468;-84
2022/09/20 13:16:44;;;;;;;5.50;1.50;;;15.60;81.80;;;;;;5003660;28;20852;-84
2022/09/20 13:19:43;;;;;;;5.30;1.80;;;15.50;88.10;;;;;;5003055;28;20462;-84
2022/09/20 13:22:16;;;;;;;5.47;1.20;;;15.30;85.60;;;;;;5000570;28;20465;-84
2022/09/20 13:24:46;;;;;;;6.00;1.57;;;15.10;82.90;;;;;;5002786;28;21039;-84
2022/09/20 13:27:17;;;;;;;4.97;1.20;;;15.00;81.50;;;;;;5003937;28;20458;-84
2022/09/20 13:29:45;;;;;;;4.67;1.57;;;15.40;84.50;;;;;;5003707;28;20448;-83
2022/09/20 13:32:16;;;;;;;5.17;1.03;;;15.60;81.00;;;;;;5003947;28;20505;-84
2022/09/20 13:34:45;;;;;;;8.60;1.20;;;15.80;82.20;;;;;;5003346;28;20467;-85
2022/09/20 13:37:19;;;;;;;5.50;1.27;;;15.90;81.00;;;;;;5005164;28;20957;-84
2022/09/20 13:39:47;;;;;;;4.17;1.10;;;16.30;75.50;;;;;;5006099;28;21015;-85
2022/09/20 13:42:18;;;;;;;4.00;1.07;;;17.30;75.70;;;;;;5006639;28;20459;-82
2022/09/20 13:44:47;;;;;;;7.50;1.33;;;18.00;71.00;;;;;;5005927;28;20903;-84
2022/09/20 13:47:22;;;;;;;5.60;1.27;;;18.10;63.10;;;;;;5005265;28;20456;-85
2022/09/20 13:50:16;;;;;;;5.87;1.07;;;18.70;68.00;;;;;;5005046;28;20483;-85
2022/09/20 13:52:49;;;;;;;4.77;1.10;;;19.50;65.80;;;;;;5002241;28;20908;-85
2022/09/20 13:55:30;;;;;;;5.93;1.20;;;19.70;63.10;;;;;;5004187;28;20460;-85
2022/09/20 14:01:26;;;;;;;8.47;1.10;;;20.30;53.50;;;;;;4973167;28;20511;-85
2022/09/20 14:03:54;;;;;;;6.63;1.07;;;19.90;57.00;;;;;;5018554;28;20476;-85
2022/09/20 14:06:44;;;;;;;5.60;0.97;;;19.70;53.20;;;;;;5018999;28;20460;-84
2022/09/20 14:09:37;;;;;;;6.37;1.10;;;20.00;56.20;;;;;;5018236;28;20449;-85
2022/09/20 14:13:03;;;;;;;6.63;1.10;;;19.90;54.00;;;;;;5017849;28;20447;-86
2022/09/20 14:16:24;;;;;;;;;;;;;;;;;;;;;
2022/09/20 14:18:52;;;;;;;5.47;1.37;;;20.10;48.00;;;;;;5013015;28;20460;-85
2022/09/20 14:21:23;;;;;;;7.43;1.43;;;20.60;50.70;;;;;;5019440;28;20477;-85
2022/09/20 14:24:25;;;;;;;6.67;1.37;;;20.90;46.60;;;;;;5017586;28;20891;-85
2022/09/20 14:34:25;;;;;;;8.93;1.20;;;19.70;44.40;;;;;;5007528;28;20860;-86
2022/09/20 15:08:08;;;;;;;5.90;1.17;;;19.00;48.40;;;;;;4806285;29;20531;-85
2022/09/20 15:11:01;;;;;;;5.93;0.90;;;19.20;45.70;;;;;;4966625;28;20449;-85
2022/09/20 15:13:48;;;;;;;;;;;;;;;;;;;;;
2022/09/20 15:20:01;;;;;;;;;;;;;;;;;;;;;
2022/09/20 15:28:16;;;;;;;7.07;2.00;;;18.50;42.00;;;;;;5015748;28;20497;-84
2022/09/20 15:31:00;;;;;;;5.23;0.93;;;19.20;39.50;;;;;;5015019;28;20477;-84
2022/09/20 15:33:30;;;;;;;5.80;1.30;;;19.60;42.90;;;;;;5014798;28;20537;-83
2022/09/20 15:36:35;;;;;;;7.27;0.90;;;19.50;32.50;;;;;;5016323;28;20467;-84
2022/09/20 15:39:35;;;;;;;;;;;;;;;;;;;;;